createdAt,value
2019-05-26T00:01:06.208Z,3.87
2019-05-26T00:03:34.652Z,4.30
2019-05-26T00:06:03.602Z,4.10
2019-05-26T00:08:32.022Z,4.40
2019-05-26T00:11:00.465Z,4.20
2019-05-26T00:13:28.910Z,4.27
2019-05-26T00:15:57.378Z,4.23
2019-05-26T00:18:25.827Z,4.10
2019-05-26T00:20:54.290Z,3.97
2019-05-26T00:23:22.762Z,3.97
2019-05-26T00:25:51.186Z,4.60
2019-05-26T00:28:19.642Z,4.03
2019-05-26T00:30:48.090Z,4.13
2019-05-26T00:33:16.537Z,4.00
2019-05-26T00:35:44.983Z,3.83
2019-05-26T00:38:13.428Z,4.27
2019-05-26T00:40:42.342Z,4.50
2019-05-26T00:43:11.291Z,4.20
2019-05-26T00:45:39.712Z,4.17
2019-05-26T00:48:08.254Z,4.07
2019-05-26T00:50:36.695Z,4.17
2019-05-26T00:53:05.286Z,4.00
2019-05-26T00:55:33.716Z,4.07
2019-05-26T00:58:02.451Z,3.90
2019-05-26T01:00:42.197Z,3.93
2019-05-26T01:03:12.039Z,4.60
2019-05-26T01:05:41.183Z,4.40
2019-05-26T01:08:10.470Z,4.13
2019-05-26T01:10:38.970Z,4.30
2019-05-26T01:13:07.576Z,3.83
2019-05-26T01:15:36.500Z,4.10
2019-05-26T01:18:06.417Z,4.17
2019-05-26T01:20:34.909Z,4.10
2019-05-26T01:23:03.971Z,4.03
2019-05-26T01:25:32.381Z,3.70
2019-05-26T01:28:00.850Z,4.10
2019-05-26T01:30:37.026Z,4.23
2019-05-26T01:33:06.728Z,3.80
2019-05-26T01:35:39.103Z,4.07
2019-05-26T01:38:22.546Z,4.00
2019-05-26T01:40:45.997Z,3.97
2019-05-26T01:43:14.452Z,4.43
2019-05-26T01:45:42.880Z,3.67
2019-05-26T01:48:11.333Z,3.83
2019-05-26T01:50:39.754Z,3.80
2019-05-26T01:53:08.653Z,4.23
2019-05-26T01:55:37.075Z,3.70
2019-05-26T01:58:05.979Z,4.07
2019-05-26T02:00:34.507Z,3.87
2019-05-26T02:03:03.290Z,4.00
2019-05-26T02:05:31.803Z,4.00
2019-05-26T02:08:00.657Z,3.77
2019-05-26T02:10:29.471Z,4.23
2019-05-26T02:12:57.902Z,4.50
2019-05-26T02:15:26.597Z,4.30
2019-05-26T02:17:55.228Z,3.90
2019-05-26T02:20:23.723Z,4.07
2019-05-26T02:22:52.222Z,3.70
2019-05-26T02:25:21.557Z,3.87
2019-05-26T02:27:49.991Z,4.10
2019-05-26T02:30:19.183Z,3.93
2019-05-26T02:32:47.672Z,4.00
2019-05-26T02:35:17.709Z,5.03
2019-05-26T02:37:46.401Z,4.53
2019-05-26T02:40:16.417Z,4.43
2019-05-26T02:42:44.908Z,4.70
2019-05-26T02:45:15.245Z,5.20
2019-05-26T02:47:44.512Z,5.20
2019-05-26T02:50:14.890Z,4.97
2019-05-26T02:52:43.319Z,5.20
2019-05-26T02:55:12.486Z,5.00
2019-05-26T02:57:40.934Z,5.13
2019-05-26T03:00:11.147Z,4.70
2019-05-26T03:02:40.134Z,5.37
2019-05-26T03:05:14.003Z,5.07
2019-05-26T03:07:43.747Z,5.27
2019-05-26T03:10:14.347Z,5.07
2019-05-26T03:12:43.767Z,5.33
2019-05-26T03:15:13.992Z,5.13
2019-05-26T03:17:43.192Z,5.20
2019-05-26T03:20:13.771Z,5.63
2019-05-26T03:22:43.067Z,4.87
2019-05-26T03:25:12.841Z,5.37
2019-05-26T03:27:41.347Z,4.77
2019-05-26T03:30:11.611Z,5.17
2019-05-26T03:32:40.223Z,4.40
2019-05-26T03:35:09.217Z,4.30
2019-05-26T03:37:37.733Z,4.33
2019-05-26T03:40:10.290Z,4.57
2019-05-26T03:42:38.729Z,4.20
2019-05-26T03:45:08.155Z,4.30
2019-05-26T03:47:36.639Z,4.40
2019-05-26T03:50:09.969Z,3.97
2019-05-26T03:52:38.461Z,3.97
2019-05-26T03:55:07.413Z,4.40
2019-05-26T03:57:35.885Z,4.70
2019-05-26T04:00:09.902Z,4.33
2019-05-26T04:02:38.365Z,4.23
2019-05-26T04:05:08.047Z,4.50
2019-05-26T04:07:36.958Z,4.33
2019-05-26T04:10:08.944Z,4.87
2019-05-26T04:12:37.452Z,4.43
2019-05-26T04:15:07.298Z,4.50
2019-05-26T04:17:35.735Z,4.40
2019-05-26T04:20:05.911Z,4.60
2019-05-26T04:22:34.365Z,4.33
2019-05-26T04:25:03.542Z,4.20
2019-05-26T04:27:32.067Z,4.57
2019-05-26T04:30:00.519Z,4.33
2019-05-26T04:32:29.010Z,4.70
2019-05-26T04:34:57.451Z,4.53
2019-05-26T04:37:25.894Z,4.00
2019-05-26T04:39:54.323Z,4.43
2019-05-26T04:42:22.759Z,4.20
2019-05-26T04:44:51.516Z,3.90
2019-05-26T04:47:19.974Z,4.00
2019-05-26T04:49:48.408Z,4.80
2019-05-26T04:52:17.172Z,5.00
2019-05-26T04:54:45.622Z,4.63
2019-05-26T04:57:14.094Z,4.60
2019-05-26T04:59:42.723Z,5.10
2019-05-26T05:02:11.481Z,5.17
2019-05-26T05:04:39.977Z,4.90
2019-05-26T05:07:08.404Z,5.10
2019-05-26T05:09:43.028Z,4.93
2019-05-26T05:12:11.474Z,4.77
2019-05-26T05:14:39.889Z,4.90
2019-05-26T05:17:08.330Z,4.90
2019-05-26T05:19:36.815Z,4.40
2019-05-26T05:22:05.739Z,4.87
2019-05-26T05:24:34.250Z,5.03
2019-05-26T05:27:02.687Z,5.50
2019-05-26T05:29:31.409Z,5.13
2019-05-26T05:31:59.838Z,4.63
2019-05-26T05:34:28.275Z,5.20
2019-05-26T05:36:56.737Z,5.00
2019-05-26T05:39:25.159Z,4.90
2019-05-26T05:41:53.626Z,5.10
2019-05-26T05:44:22.060Z,4.80
2019-05-26T05:46:50.494Z,5.40
2019-05-26T05:49:18.942Z,4.73
2019-05-26T05:51:47.447Z,4.90
2019-05-26T05:54:15.913Z,4.40
2019-05-26T05:56:44.351Z,4.13
2019-05-26T05:59:13.171Z,3.93
2019-05-26T06:01:41.607Z,4.10
2019-05-26T06:04:10.050Z,4.10
2019-05-26T06:06:38.494Z,4.50
2019-05-26T06:09:07.514Z,4.30
2019-05-26T06:11:36.803Z,3.63
2019-05-26T06:14:05.228Z,4.30
2019-05-26T06:16:33.674Z,4.00
2019-05-26T06:19:02.101Z,4.27
2019-05-26T06:21:30.540Z,4.67
2019-05-26T06:23:58.953Z,5.10
2019-05-26T06:26:27.450Z,5.03
2019-05-26T06:28:56.100Z,4.77
2019-05-26T06:31:25.010Z,4.77
2019-05-26T06:33:53.441Z,4.67
2019-05-26T06:36:21.872Z,4.40
2019-05-26T06:38:50.317Z,4.50
2019-05-26T06:41:32.204Z,4.60
2019-05-26T06:43:48.983Z,3.60
2019-05-26T06:46:17.437Z,3.60
2019-05-26T06:48:45.868Z,4.20
2019-05-26T06:54:54.940Z,4.43
2019-05-26T06:57:23.370Z,4.13
2019-05-26T06:59:51.872Z,4.30
2019-05-26T07:02:20.267Z,4.40
2019-05-26T07:04:48.682Z,4.50
2019-05-26T07:07:17.094Z,4.57
2019-05-26T07:09:45.511Z,4.60
2019-05-26T07:12:13.917Z,4.70
2019-05-26T07:14:42.334Z,4.83
2019-05-26T07:17:10.735Z,5.20
2019-05-26T07:19:39.157Z,4.93
2019-05-26T07:22:07.566Z,4.60
2019-05-26T07:24:41.698Z,3.90
2019-05-26T07:27:10.112Z,3.90
2019-05-26T07:29:38.925Z,3.47
2019-05-26T07:32:07.339Z,3.63
2019-05-26T07:34:35.762Z,3.63
2019-05-26T07:37:04.208Z,3.30
2019-05-26T07:39:32.705Z,3.70
2019-05-26T07:42:10.108Z,3.40
2019-05-26T07:44:31.255Z,3.80
2019-05-26T07:47:00.053Z,3.40
2019-05-26T07:49:28.518Z,4.10
2019-05-26T07:51:56.933Z,4.10
2019-05-26T07:54:26.124Z,3.30
2019-05-26T07:56:54.722Z,3.63
2019-05-26T07:59:23.142Z,3.63
2019-05-26T08:01:51.556Z,3.70
2019-05-26T08:04:22.979Z,3.87
2019-05-26T08:06:51.747Z,3.73
2019-05-26T08:09:20.174Z,3.83
2019-05-26T08:11:48.578Z,3.80
2019-05-26T08:14:17.003Z,3.53
2019-05-26T08:16:45.410Z,3.90
2019-05-26T08:19:13.835Z,3.57
2019-05-26T08:21:42.234Z,3.83
2019-05-26T08:24:10.657Z,3.40
2019-05-26T08:26:39.065Z,3.20
2019-05-26T08:29:07.485Z,2.80
2019-05-26T08:31:35.971Z,3.63
2019-05-26T08:34:04.450Z,3.23
2019-05-26T08:36:33.135Z,3.60
2019-05-26T08:39:01.535Z,3.10
2019-05-26T08:41:29.950Z,2.50
2019-05-26T08:43:58.404Z,2.67
2019-05-26T08:46:26.839Z,2.77
2019-05-26T08:48:55.590Z,2.40
2019-05-26T08:51:24.010Z,2.60
2019-05-26T08:53:52.419Z,2.40
2019-05-26T08:56:20.861Z,2.13
2019-05-26T08:58:49.262Z,2.37
2019-05-26T09:01:17.690Z,2.60
2019-05-26T09:03:46.100Z,2.00
2019-05-26T09:06:14.538Z,2.07
2019-05-26T09:08:42.942Z,2.30
2019-05-26T09:11:11.366Z,1.87
2019-05-26T09:13:39.797Z,1.97
2019-05-26T09:16:08.276Z,1.80
2019-05-26T09:18:36.761Z,1.67
2019-05-26T09:21:05.176Z,1.67
2019-05-26T09:23:33.574Z,1.50
2019-05-26T09:26:01.998Z,1.90
2019-05-26T09:28:30.407Z,2.07
2019-05-26T09:30:58.831Z,4.27
2019-05-26T09:33:27.258Z,1.90
2019-05-26T09:35:55.994Z,2.23
2019-05-26T09:38:24.407Z,1.90
2019-05-26T09:40:53.071Z,1.67
2019-05-26T09:43:21.493Z,2.10
2019-05-26T09:45:49.957Z,1.70
2019-05-26T09:48:18.377Z,1.70
2019-05-26T09:50:46.802Z,1.70
2019-05-26T09:53:15.556Z,1.80
2019-05-26T09:55:43.981Z,1.80
2019-05-26T09:58:12.472Z,1.50
2019-05-26T10:00:40.894Z,1.50
2019-05-26T10:03:09.309Z,1.40
2019-05-26T10:05:37.718Z,1.20
2019-05-26T10:08:06.141Z,1.30
2019-05-26T10:10:34.542Z,1.40
2019-05-26T10:13:02.988Z,1.40
2019-05-26T10:15:31.441Z,1.23
2019-05-26T10:17:59.862Z,1.00
2019-05-26T10:20:28.271Z,1.10
2019-05-26T10:22:56.696Z,1.20
2019-05-26T10:25:25.095Z,1.23
2019-05-26T10:27:53.865Z,1.40
2019-05-26T10:30:22.273Z,1.73
2019-05-26T10:32:50.691Z,1.33
2019-05-26T10:35:19.136Z,1.97
2019-05-26T10:37:47.601Z,1.60
2019-05-26T10:40:17.901Z,1.70
2019-05-26T10:42:46.309Z,1.60
2019-05-26T10:45:15.057Z,1.50
2019-05-26T10:47:43.481Z,2.30
2019-05-26T10:50:12.252Z,1.70
2019-05-26T10:52:40.677Z,1.90
2019-05-26T10:55:09.822Z,1.93
2019-05-26T10:57:38.254Z,1.13
2019-05-26T11:00:08.714Z,1.60
2019-05-26T11:02:37.141Z,1.80
2019-05-26T11:05:08.986Z,2.30
2019-05-26T11:07:37.404Z,2.23
2019-05-26T11:10:09.274Z,2.13
2019-05-26T11:12:37.991Z,2.00
2019-05-26T11:15:08.220Z,2.00
2019-05-26T11:17:36.645Z,2.30
2019-05-26T11:20:07.451Z,2.30
2019-05-26T11:22:35.897Z,1.80
2019-05-26T11:25:08.466Z,2.30
2019-05-26T11:27:36.901Z,2.23
2019-05-26T11:30:10.167Z,2.33
2019-05-26T11:32:38.743Z,2.60
2019-05-26T11:35:07.500Z,2.40
2019-05-26T11:37:38.950Z,2.40
2019-05-26T11:40:09.474Z,2.30
2019-05-26T11:42:38.111Z,2.50
2019-05-26T11:45:10.851Z,2.60
2019-05-26T11:47:45.109Z,2.10
2019-05-26T11:50:14.249Z,2.20
2019-05-26T11:52:42.733Z,2.77
2019-05-26T11:55:11.347Z,2.13
2019-05-26T11:57:39.786Z,2.50
2019-05-26T12:00:10.496Z,2.40
2019-05-26T12:02:39.926Z,2.53
2019-05-26T12:05:08.719Z,1.70
2019-05-26T12:07:37.187Z,1.73
2019-05-26T12:10:07.436Z,1.47
2019-05-26T12:12:36.164Z,1.47
2019-05-26T12:15:14.978Z,1.70
2019-05-26T12:17:43.434Z,1.70
2019-05-26T12:20:12.633Z,1.80
2019-05-26T12:22:41.071Z,2.20
2019-05-26T12:25:09.854Z,1.27
2019-05-26T12:27:38.321Z,1.77
2019-05-26T12:30:09.196Z,1.60
2019-05-26T12:32:37.712Z,2.10
2019-05-26T12:35:09.250Z,1.90
2019-05-26T12:37:37.697Z,2.10
2019-05-26T12:40:10.746Z,2.17
2019-05-26T12:42:40.059Z,1.70
2019-05-26T12:45:12.875Z,1.30
2019-05-26T12:47:41.650Z,1.53
2019-05-26T12:50:10.547Z,1.60
2019-05-26T12:52:39.058Z,1.60
2019-05-26T12:55:09.190Z,1.87
2019-05-26T12:57:38.339Z,1.50
2019-05-26T13:00:08.813Z,1.70
2019-05-26T13:02:37.309Z,1.73
2019-05-26T13:05:07.698Z,1.80
2019-05-26T13:07:36.716Z,1.90
2019-05-26T13:10:08.608Z,1.80
2019-05-26T13:12:37.411Z,1.70
2019-05-26T13:15:10.775Z,1.50
2019-05-26T13:17:39.281Z,1.57
2019-05-26T13:20:09.495Z,1.30
2019-05-26T13:22:40.973Z,1.40
2019-05-26T13:25:11.022Z,1.40
2019-05-26T13:27:39.534Z,1.60
2019-05-26T13:30:11.239Z,1.60
2019-05-26T13:32:39.661Z,1.70
2019-05-26T13:35:09.252Z,1.27
2019-05-26T13:37:37.706Z,1.13
2019-05-26T13:40:07.597Z,0.90
2019-05-26T13:42:36.611Z,0.80
2019-05-26T13:45:21.703Z,1.10
2019-05-26T13:47:39.706Z,1.00
2019-05-26T13:50:09.319Z,1.23
2019-05-26T13:52:37.855Z,1.23
2019-05-26T13:55:11.133Z,1.10
2019-05-26T13:57:39.634Z,0.90
2019-05-26T14:00:09.828Z,1.00
2019-05-26T14:02:38.748Z,1.10
2019-05-26T14:05:08.835Z,1.10
2019-05-26T14:07:37.276Z,1.17
2019-05-26T14:10:31.340Z,1.10
2019-05-26T14:12:59.777Z,1.13
2019-05-26T14:15:37.505Z,1.00
2019-05-26T14:17:59.018Z,0.90
2019-05-26T14:20:35.865Z,1.00
2019-05-26T14:23:05.960Z,1.10
2019-05-26T14:25:34.629Z,1.10
2019-05-26T14:28:03.196Z,1.00
2019-05-26T14:30:31.724Z,0.90
2019-05-26T14:33:00.538Z,0.80
2019-05-26T14:35:28.991Z,0.90
2019-05-26T14:37:57.418Z,1.00
2019-05-26T14:40:25.966Z,1.20
2019-05-26T14:42:54.417Z,1.07
2019-05-26T14:45:22.863Z,1.10
2019-05-26T14:47:51.302Z,1.30
2019-05-26T14:50:20.314Z,1.27
2019-05-26T14:52:48.757Z,1.23
2019-05-26T14:55:17.736Z,1.00
2019-05-26T14:57:46.175Z,1.20
2019-05-26T15:00:15.251Z,1.63
2019-05-26T15:02:43.783Z,1.07
2019-05-26T15:05:13.249Z,1.30
2019-05-26T15:07:41.702Z,1.33
2019-05-26T15:10:10.215Z,3.33
2019-05-26T15:12:38.670Z,1.20
2019-05-26T15:15:09.307Z,1.20
2019-05-26T15:17:37.742Z,1.33
2019-05-26T15:20:07.614Z,1.17
2019-05-26T15:22:36.698Z,1.10
2019-05-26T15:25:08.142Z,1.00
2019-05-26T15:27:36.673Z,1.00
2019-05-26T15:30:09.910Z,0.80
2019-05-26T15:32:38.341Z,1.00
2019-05-26T15:35:10.223Z,0.90
2019-05-26T15:37:38.664Z,0.80
2019-05-26T15:40:08.563Z,0.90
2019-05-26T15:42:37.167Z,0.90
2019-05-26T15:45:09.503Z,1.10
2019-05-26T15:47:38.091Z,0.90
2019-05-26T15:50:07.294Z,1.00
2019-05-26T15:52:35.750Z,0.80
2019-05-26T15:55:04.978Z,0.97
2019-05-26T15:57:33.452Z,1.10
2019-05-26T16:00:01.900Z,1.00
2019-05-26T16:02:30.346Z,1.00
2019-05-26T16:04:59.121Z,0.93
2019-05-26T16:07:27.874Z,1.13
2019-05-26T16:09:56.336Z,1.10
2019-05-26T16:12:24.766Z,1.30
2019-05-26T16:14:53.599Z,1.10
2019-05-26T16:17:22.042Z,1.17
2019-05-26T16:19:50.863Z,0.90
2019-05-26T16:22:19.657Z,1.30
2019-05-26T16:24:48.435Z,1.47
2019-05-26T16:27:19.532Z,1.20
2019-05-26T16:29:47.043Z,1.20
2019-05-26T16:32:18.795Z,1.37
2019-05-26T16:34:46.027Z,1.40
2019-05-26T16:37:14.482Z,1.10
2019-05-26T16:39:42.916Z,1.23
2019-05-26T16:42:11.365Z,1.17
2019-05-26T16:44:39.784Z,1.37
2019-05-26T16:47:08.242Z,1.40
2019-05-26T16:49:36.670Z,1.40
2019-05-26T16:52:06.069Z,1.27
2019-05-26T16:54:34.999Z,1.27
2019-05-26T16:57:03.650Z,1.40
2019-05-26T16:59:32.091Z,1.40
2019-05-26T17:02:00.864Z,1.40
2019-05-26T17:04:29.294Z,1.37
2019-05-26T17:06:57.744Z,1.20
2019-05-26T17:09:26.533Z,1.13
2019-05-26T17:11:55.035Z,1.23
2019-05-26T17:14:23.495Z,1.10
2019-05-26T17:16:51.956Z,1.10
2019-05-26T17:19:20.453Z,1.10
2019-05-26T17:21:48.911Z,1.00
2019-05-26T17:24:17.377Z,1.00
2019-05-26T17:26:45.844Z,1.17
2019-05-26T17:29:14.295Z,1.00
2019-05-26T17:31:42.738Z,1.13
2019-05-26T17:34:11.202Z,1.23
2019-05-26T17:36:39.689Z,1.17
2019-05-26T17:39:08.917Z,1.03
2019-05-26T17:41:37.970Z,1.30
2019-05-26T17:44:06.785Z,1.30
2019-05-26T17:46:35.293Z,1.17
2019-05-26T17:49:03.948Z,1.10
2019-05-26T17:51:33.206Z,1.07
2019-05-26T17:54:01.763Z,1.20
2019-05-26T17:56:30.226Z,1.37
2019-05-26T17:58:58.706Z,1.10
2019-05-26T18:01:27.143Z,1.20
2019-05-26T18:03:55.927Z,1.00
2019-05-26T18:06:24.399Z,22.70
2019-05-26T18:08:52.876Z,1.30
2019-05-26T18:11:21.378Z,1.20
2019-05-26T18:13:49.830Z,1.20
2019-05-26T18:16:18.439Z,1.20
2019-05-26T18:18:50.506Z,0.90
2019-05-26T18:21:18.960Z,1.10
2019-05-26T18:23:47.422Z,1.00
2019-05-26T18:26:15.874Z,1.10
2019-05-26T18:28:44.339Z,1.07
2019-05-26T18:31:12.768Z,0.90
2019-05-26T18:33:41.216Z,1.10
2019-05-26T18:36:09.723Z,1.20
2019-05-26T18:38:38.180Z,1.00
2019-05-26T18:41:06.603Z,1.00
2019-05-26T18:43:35.387Z,1.00
2019-05-26T18:46:03.874Z,0.87
2019-05-26T18:48:32.394Z,1.10
2019-05-26T18:51:00.862Z,1.13
2019-05-26T18:53:29.957Z,1.00
2019-05-26T18:55:58.679Z,1.13
2019-05-26T18:58:27.117Z,1.00
2019-05-26T19:00:57.115Z,0.97
2019-05-26T19:03:28.801Z,0.93
2019-05-26T19:05:58.101Z,0.90
2019-05-26T19:08:26.557Z,1.00
2019-05-26T19:10:55.430Z,1.10
2019-05-26T19:13:25.419Z,1.00
2019-05-26T19:15:53.930Z,1.10
2019-05-26T19:18:22.411Z,0.90
2019-05-26T19:20:51.017Z,1.03
2019-05-26T19:23:19.548Z,1.00
2019-05-26T19:25:48.055Z,0.80
2019-05-26T19:28:16.570Z,1.10
2019-05-26T19:30:45.797Z,1.10
2019-05-26T19:33:14.436Z,1.00
2019-05-26T19:35:42.889Z,1.00
2019-05-26T19:38:11.317Z,1.00
2019-05-26T19:40:40.150Z,0.83
2019-05-26T19:43:08.680Z,0.90
2019-05-26T19:45:37.196Z,0.90
2019-05-26T19:48:05.631Z,0.80
2019-05-26T19:50:34.079Z,1.20
2019-05-26T19:53:02.539Z,0.90
2019-05-26T19:55:31.007Z,1.00
2019-05-26T19:57:59.443Z,0.90
2019-05-26T20:00:29.979Z,1.10
2019-05-26T20:02:58.446Z,0.97
2019-05-26T20:05:26.903Z,1.00
2019-05-26T20:07:55.352Z,1.23
2019-05-26T20:10:23.950Z,1.10
2019-05-26T20:12:52.375Z,1.40
2019-05-26T20:15:21.131Z,0.93
2019-05-26T20:17:49.659Z,1.20
2019-05-26T20:20:19.525Z,1.00
2019-05-26T20:22:47.999Z,1.10
2019-05-26T20:25:17.019Z,1.13
2019-05-26T20:27:47.540Z,1.30
2019-05-26T20:30:20.994Z,1.30
2019-05-26T20:32:47.407Z,1.50
2019-05-26T20:35:16.955Z,1.47
2019-05-26T20:37:45.430Z,1.40
2019-05-26T20:40:15.168Z,1.30
2019-05-26T20:42:43.614Z,1.30
2019-05-26T20:45:12.442Z,1.50
2019-05-26T20:47:40.893Z,1.60
2019-05-26T20:50:27.609Z,1.50
2019-05-26T20:52:41.045Z,1.33
2019-05-26T20:55:10.522Z,1.20
2019-05-26T20:57:38.974Z,1.70
2019-05-26T21:00:10.105Z,1.60
2019-05-26T21:02:39.390Z,1.30
2019-05-26T21:05:08.703Z,1.30
2019-05-26T21:07:37.134Z,1.50
2019-05-26T21:10:06.937Z,1.50
2019-05-26T21:12:35.717Z,1.50
2019-05-26T21:15:05.741Z,1.50
2019-05-26T21:17:34.159Z,1.80
2019-05-26T21:20:02.675Z,2.50
2019-05-26T21:22:31.464Z,1.60
2019-05-26T21:24:59.920Z,1.70
2019-05-26T21:27:28.347Z,1.80
2019-05-26T21:29:56.898Z,2.17
2019-05-26T21:32:25.347Z,2.10
2019-05-26T21:34:53.791Z,2.03
2019-05-26T21:37:22.240Z,2.27
2019-05-26T21:39:50.693Z,2.10
2019-05-26T21:42:19.511Z,2.30
2019-05-26T21:44:47.957Z,2.03
2019-05-26T21:47:16.446Z,2.20
2019-05-26T21:49:45.258Z,2.00
2019-05-26T21:52:13.723Z,1.97
2019-05-26T21:54:42.142Z,2.40
2019-05-26T21:57:10.597Z,2.00
2019-05-26T21:59:39.378Z,2.37
2019-05-26T22:02:07.917Z,2.37
2019-05-26T22:04:36.389Z,2.10
2019-05-26T22:07:05.376Z,2.17
2019-05-26T22:09:33.863Z,2.10
2019-05-26T22:12:02.312Z,2.03
2019-05-26T22:14:30.737Z,2.13
2019-05-26T22:16:59.219Z,1.97
2019-05-26T22:19:27.943Z,1.80
2019-05-26T22:21:56.399Z,2.03
2019-05-26T22:24:25.200Z,2.10
2019-05-26T22:26:53.626Z,2.07
2019-05-26T22:29:22.068Z,1.97
2019-05-26T22:31:50.498Z,1.80
2019-05-26T22:34:18.938Z,2.13
2019-05-26T22:36:47.386Z,1.93
2019-05-26T22:39:15.849Z,2.50
2019-05-26T22:41:44.300Z,2.10
2019-05-26T22:44:12.735Z,2.23
2019-05-26T22:46:41.527Z,2.00
2019-05-26T22:49:09.950Z,2.47
2019-05-26T22:51:38.424Z,2.10
2019-05-26T22:54:06.865Z,2.40
2019-05-26T22:56:35.340Z,2.10
2019-05-26T22:59:03.858Z,2.00
2019-05-26T23:01:32.323Z,1.87
2019-05-26T23:04:03.239Z,2.20
2019-05-26T23:06:31.254Z,2.27
2019-05-26T23:08:59.708Z,2.23
2019-05-26T23:11:28.156Z,2.10
2019-05-26T23:13:56.595Z,2.17
2019-05-26T23:16:25.024Z,2.30
2019-05-26T23:18:53.631Z,1.93
2019-05-26T23:21:22.398Z,2.00
2019-05-26T23:23:50.834Z,2.10
2019-05-26T23:26:19.274Z,1.80
2019-05-26T23:28:47.722Z,2.00
2019-05-26T23:31:16.234Z,2.30
2019-05-26T23:33:44.716Z,1.60
2019-05-26T23:36:13.154Z,1.97
2019-05-26T23:38:41.615Z,2.10
2019-05-26T23:41:10.064Z,1.90
2019-05-26T23:43:38.540Z,2.00
2019-05-26T23:46:06.979Z,2.23
2019-05-26T23:48:35.442Z,2.13
2019-05-26T23:51:03.888Z,2.10
2019-05-26T23:53:32.342Z,2.00
2019-05-26T23:56:00.818Z,2.17
2019-05-26T23:58:29.261Z,2.10
